Time;durP1;ratioP1;P1;durP2;ratioP2;P2;SDS_P1;SDS_P2;PMS_P1;PMS_P2;Temp;Humidity;BMP_temperature;BMP_pressure;BME280_temperature;BME280_humidity;BME280_pressure;Samples;Min_cycle;Max_cycle;Signal;HPM_P1;HPM_P2
2021/01/19 00:00:08;;;;;;;;;;;18.80;35.50;;;;;;480295;246;1198;-54
2021/01/19 00:02:09;;;;;;;;;;;18.80;35.60;;;;;;480078;247;1344;-53
2021/01/19 00:04:11;;;;;;;;;;;18.80;35.60;;;;;;480125;246;1641;-54
2021/01/19 00:06:12;;;;;;;;;;;18.80;35.60;;;;;;480072;246;1277;-53
2021/01/19 00:08:14;;;;;;;;;;;18.80;35.60;;;;;;480124;247;1107;-53
2021/01/19 00:10:15;;;;;;;;;;;18.80;35.60;;;;;;480262;246;1838;-54
2021/01/19 00:12:16;;;;;;;;;;;18.70;35.60;;;;;;480490;246;1224;-54
2021/01/19 00:14:17;;;;;;;;;;;18.70;35.60;;;;;;480192;247;2146;-54
2021/01/19 00:16:19;;;;;;;;;;;18.70;35.60;;;;;;480177;247;1268;-54
2021/01/19 00:18:20;;;;;;;;;;;18.70;35.60;;;;;;480144;247;1420;-54
2021/01/19 00:20:21;;;;;;;;;;;18.70;35.60;;;;;;480121;247;1190;-54
2021/01/19 00:22:23;;;;;;;;;;;18.70;35.60;;;;;;480182;246;1225;-53
2021/01/19 00:24:24;;;;;;;;;;;18.70;35.60;;;;;;480304;246;1270;-54
2021/01/19 00:26:25;;;;;;;;;;;18.70;35.60;;;;;;480213;246;1223;-54
2021/01/19 00:28:26;;;;;;;;;;;18.70;35.60;;;;;;480122;246;1217;-53
2021/01/19 00:30:28;;;;;;;;;;;18.60;34.30;;;;;;480115;246;1240;-53
2021/01/19 00:32:29;;;;;;;;;;;18.60;35.60;;;;;;480185;246;1211;-54
2021/01/19 00:34:30;;;;;;;;;;;18.60;35.60;;;;;;480195;246;2251;-54
2021/01/19 00:36:31;;;;;;;;;;;18.70;35.70;;;;;;480240;246;1228;-53
2021/01/19 00:38:33;;;;;;;;;;;18.70;35.70;;;;;;480084;246;1243;-54
2021/01/19 00:40:34;;;;;;;;;;;18.70;35.70;;;;;;480141;247;1267;-54
2021/01/19 00:42:37;;;;;;;;;;;18.60;34.30;;;;;;480152;247;1243;-54
2021/01/19 00:44:38;;;;;;;;;;;18.60;35.70;;;;;;480206;246;1378;-54
2021/01/19 00:46:40;;;;;;;;;;;18.60;35.70;;;;;;480098;246;1244;-54
2021/01/19 00:48:41;;;;;;;;;;;18.60;35.70;;;;;;480135;246;1305;-54
2021/01/19 00:50:42;;;;;;;;;;;18.60;35.70;;;;;;480126;246;1240;-54
2021/01/19 00:52:43;;;;;;;;;;;18.60;35.70;;;;;;480075;246;1248;-54
2021/01/19 00:54:45;;;;;;;;;;;18.60;35.70;;;;;;480106;247;2194;-54
2021/01/19 00:56:46;;;;;;;;;;;18.60;35.70;;;;;;480188;246;1271;-54
2021/01/19 00:58:47;;;;;;;;;;;18.60;35.70;;;;;;480202;246;1421;-54
2021/01/19 01:00:49;;;;;;;;;;;18.60;35.70;;;;;;480134;246;1239;-54
2021/01/19 01:02:50;;;;;;;;;;;18.60;35.70;;;;;;480158;246;1265;-54
2021/01/19 01:04:51;;;;;;;;;;;18.50;35.70;;;;;;480365;246;1204;-53
2021/01/19 01:06:53;;;;;;;;;;;18.50;35.70;;;;;;480141;247;1325;-53
2021/01/19 01:08:54;;;;;;;;;;;18.50;35.70;;;;;;480268;246;1356;-54
2021/01/19 01:10:58;;;;;;;;;;;18.50;35.70;;;;;;480195;246;1223;-53
2021/01/19 01:12:59;;;;;;;;;;;18.50;35.70;;;;;;480175;247;2186;-54
2021/01/19 01:15:00;;;;;;;;;;;18.50;35.70;;;;;;480336;246;1384;-53
2021/01/19 01:17:02;;;;;;;;;;;18.50;35.70;;;;;;480191;246;1238;-54
2021/01/19 01:19:03;;;;;;;;;;;18.50;35.70;;;;;;480325;246;1325;-53
2021/01/19 01:21:04;;;;;;;;;;;18.50;35.70;;;;;;480154;246;1148;-54
2021/01/19 01:23:05;;;;;;;;;;;18.50;35.70;;;;;;480216;246;1255;-54
2021/01/19 01:25:07;;;;;;;;;;;18.50;35.70;;;;;;480206;246;1226;-54
2021/01/19 01:27:08;;;;;;;;;;;18.50;35.70;;;;;;480096;247;1170;-54
2021/01/19 01:29:09;;;;;;;;;;;18.50;35.80;;;;;;480111;247;1250;-54
2021/01/19 01:31:10;;;;;;;;;;;18.50;35.80;;;;;;480132;246;1225;-54
2021/01/19 01:33:12;;;;;;;;;;;18.50;35.80;;;;;;480094;246;2213;-54
2021/01/19 01:35:13;;;;;;;;;;;18.50;35.80;;;;;;480058;247;1248;-54
2021/01/19 01:37:14;;;;;;;;;;;18.50;35.80;;;;;;480093;247;1234;-53
2021/01/19 01:39:16;;;;;;;;;;;18.50;35.80;;;;;;480115;247;1269;-54
2021/01/19 01:41:17;;;;;;;;;;;18.50;35.80;;;;;;480108;247;1346;-54
2021/01/19 01:43:18;;;;;;;;;;;18.40;35.80;;;;;;480200;246;1171;-54
2021/01/19 01:45:19;;;;;;;;;;;18.40;35.80;;;;;;480113;247;1418;-54
2021/01/19 01:47:21;;;;;;;;;;;18.50;35.80;;;;;;480129;247;1237;-53
2021/01/19 01:49:22;;;;;;;;;;;18.50;35.80;;;;;;480168;246;1266;-53
2021/01/19 01:51:23;;;;;;;;;;;18.50;35.80;;;;;;480148;246;1258;-53
2021/01/19 01:53:25;;;;;;;;;;;18.40;35.70;;;;;;480195;246;2131;-54
2021/01/19 01:55:26;;;;;;;;;;;18.40;35.80;;;;;;480154;246;1216;-54
2021/01/19 01:57:27;;;;;;;;;;;18.40;35.80;;;;;;480140;246;1327;-54
2021/01/19 01:59:30;;;;;;;;;;;18.40;35.70;;;;;;480117;247;1481;-53
2021/01/19 02:01:30;;;;;;;;;;;18.40;34.50;;;;;;479989;248;2023;-54
2021/01/19 02:03:31;;;;;;;;;;;18.40;35.80;;;;;;480146;246;1388;-54
2021/01/19 02:05:32;;;;;;;;;;;18.40;35.80;;;;;;480227;246;1248;-53
2021/01/19 02:07:33;;;;;;;;;;;18.40;35.80;;;;;;480115;247;1108;-53
2021/01/19 02:09:35;;;;;;;;;;;18.40;35.80;;;;;;480116;246;1303;-54
2021/01/19 02:11:36;;;;;;;;;;;18.40;35.80;;;;;;480139;246;1445;-54
2021/01/19 02:13:37;;;;;;;;;;;18.40;35.80;;;;;;480175;246;2135;-54
2021/01/19 02:15:38;;;;;;;;;;;18.40;35.80;;;;;;480095;247;1329;-54
2021/01/19 02:17:40;;;;;;;;;;;18.40;35.80;;;;;;480135;247;1192;-54
2021/01/19 02:19:41;;;;;;;;;;;18.40;35.80;;;;;;480273;246;1285;-54
2021/01/19 02:21:42;;;;;;;;;;;18.40;35.80;;;;;;480323;246;1230;-54
2021/01/19 02:23:44;;;;;;;;;;;18.40;35.80;;;;;;480210;246;1238;-53
2021/01/19 02:25:45;;;;;;;;;;;18.30;35.80;;;;;;480141;246;1424;-54
2021/01/19 02:27:46;;;;;;;;;;;18.40;35.80;;;;;;480409;246;1462;-53
2021/01/19 02:29:48;;;;;;;;;;;18.40;35.90;;;;;;480044;246;1247;-53
2021/01/19 02:31:49;;;;;;;;;;;18.40;35.80;;;;;;480101;246;1278;-53
2021/01/19 02:33:50;;;;;;;;;;;18.40;35.80;;;;;;480006;247;2163;-54
2021/01/19 02:35:52;;;;;;;;;;;18.40;35.90;;;;;;480108;246;1367;-54
2021/01/19 02:37:53;;;;;;;;;;;18.30;35.80;;;;;;480224;246;1207;-53
2021/01/19 02:39:54;;;;;;;;;;;18.40;35.90;;;;;;480111;246;1236;-54
2021/01/19 02:41:55;;;;;;;;;;;18.40;35.80;;;;;;480186;246;1231;-54
2021/01/19 02:43:57;;;;;;;;;;;18.40;35.70;;;;;;480099;247;1236;-54
2021/01/19 02:45:58;;;;;;;;;;;18.40;35.70;;;;;;480138;246;1220;-53
2021/01/19 02:47:59;;;;;;;;;;;18.40;35.70;;;;;;480174;246;1152;-54
2021/01/19 02:50:00;;;;;;;;;;;18.40;35.60;;;;;;480116;247;1235;-54
2021/01/19 02:52:02;;;;;;;;;;;18.50;35.70;;;;;;480065;247;1208;-54
2021/01/19 02:54:03;;;;;;;;;;;18.50;35.60;;;;;;480130;246;2193;-54
2021/01/19 02:56:04;;;;;;;;;;;18.50;35.60;;;;;;480151;246;1227;-54
2021/01/19 02:58:06;;;;;;;;;;;18.50;35.60;;;;;;480184;246;1238;-53
2021/01/19 03:00:07;;;;;;;;;;;18.50;35.60;;;;;;480123;246;1280;-53
2021/01/19 03:02:08;;;;;;;;;;;18.50;35.50;;;;;;480085;247;1191;-54
2021/01/19 03:04:09;;;;;;;;;;;18.60;35.60;;;;;;480117;246;1239;-53
2021/01/19 03:06:11;;;;;;;;;;;18.60;35.50;;;;;;480183;246;1164;-53
2021/01/19 03:08:12;;;;;;;;;;;18.60;35.50;;;;;;480123;246;1154;-54
2021/01/19 03:10:13;;;;;;;;;;;18.60;35.50;;;;;;480095;246;1323;-54
2021/01/19 03:12:14;;;;;;;;;;;18.70;35.50;;;;;;479979;246;1264;-54
2021/01/19 03:14:16;;;;;;;;;;;18.60;35.40;;;;;;480087;247;2197;-54
2021/01/19 03:16:17;;;;;;;;;;;18.60;35.40;;;;;;480053;246;1129;-54
2021/01/19 03:18:18;;;;;;;;;;;18.70;35.40;;;;;;480170;246;1156;-54
2021/01/19 03:20:22;;;;;;;;;;;18.70;35.40;;;;;;480207;246;1305;-54
2021/01/19 03:22:21;;;;;;;;;;;18.70;35.30;;;;;;480037;248;1407;-54
2021/01/19 03:24:22;;;;;;;;;;;18.70;35.30;;;;;;480082;247;1320;-53
2021/01/19 03:26:23;;;;;;;;;;;18.70;35.30;;;;;;480057;247;1144;-53
2021/01/19 03:28:25;;;;;;;;;;;18.70;35.20;;;;;;480209;246;1097;-54
2021/01/19 03:30:26;;;;;;;;;;;18.70;33.90;;;;;;480142;247;1299;-53
2021/01/19 03:32:27;;;;;;;;;;;18.80;35.30;;;;;;480115;247;1178;-54
2021/01/19 03:34:28;;;;;;;;;;;18.80;35.20;;;;;;480402;246;2150;-54
2021/01/19 03:36:30;;;;;;;;;;;18.80;35.20;;;;;;480109;247;1227;-53
2021/01/19 03:38:31;;;;;;;;;;;18.80;35.20;;;;;;480217;246;1171;-54
2021/01/19 03:40:32;;;;;;;;;;;18.80;35.20;;;;;;480094;247;1307;-54
2021/01/19 03:42:34;;;;;;;;;;;18.80;35.20;;;;;;480080;247;1151;-52
2021/01/19 03:44:35;;;;;;;;;;;18.90;35.20;;;;;;480148;246;1378;-54
2021/01/19 03:46:36;;;;;;;;;;;18.90;35.20;;;;;;480235;246;1165;-54
2021/01/19 03:48:37;;;;;;;;;;;18.90;35.10;;;;;;480351;246;1303;-53
2021/01/19 03:50:39;;;;;;;;;;;18.90;35.10;;;;;;480133;246;1267;-54
2021/01/19 03:52:40;;;;;;;;;;;18.90;35.10;;;;;;480153;246;1160;-54
2021/01/19 03:54:41;;;;;;;;;;;18.90;35.10;;;;;;480182;246;2205;-54
2021/01/19 03:56:43;;;;;;;;;;;18.90;35.10;;;;;;480099;247;1129;-53
2021/01/19 03:58:44;;;;;;;;;;;18.90;35.10;;;;;;480113;246;1218;-54
2021/01/19 04:00:45;;;;;;;;;;;19.00;35.10;;;;;;480374;246;1277;-54
2021/01/19 04:02:46;;;;;;;;;;;18.90;35.00;;;;;;480176;246;1090;-53
2021/01/19 04:04:48;;;;;;;;;;;19.00;35.10;;;;;;480121;246;1369;-54
2021/01/19 04:06:49;;;;;;;;;;;19.00;35.10;;;;;;480056;247;1197;-54
2021/01/19 04:08:51;;;;;;;;;;;19.00;35.00;;;;;;480124;246;1260;-54
2021/01/19 04:10:52;;;;;;;;;;;19.00;35.00;;;;;;480109;247;1238;-54
2021/01/19 04:12:53;;;;;;;;;;;19.00;35.00;;;;;;480163;246;1249;-53
2021/01/19 04:14:55;;;;;;;;;;;19.00;35.00;;;;;;480167;246;2193;-54
2021/01/19 04:16:56;;;;;;;;;;;19.00;34.90;;;;;;480136;247;1319;-54
2021/01/19 04:18:57;;;;;;;;;;;19.10;35.00;;;;;;480156;246;1328;-54
2021/01/19 04:20:58;;;;;;;;;;;19.10;35.00;;;;;;480089;247;1175;-54
2021/01/19 04:23:00;;;;;;;;;;;19.10;34.90;;;;;;480156;246;1287;-54
2021/01/19 04:25:01;;;;;;;;;;;19.10;34.90;;;;;;480129;247;1280;-54
2021/01/19 04:27:02;;;;;;;;;;;19.10;34.90;;;;;;480065;247;1084;-54
2021/01/19 04:29:03;;;;;;;;;;;19.10;33.50;;;;;;480086;246;1239;-54
2021/01/19 04:31:05;;;;;;;;;;;19.10;34.80;;;;;;480088;246;1252;-54
2021/01/19 04:33:06;;;;;;;;;;;19.10;34.80;;;;;;480119;246;1324;-53
2021/01/19 04:35:08;;;;;;;;;;;19.10;34.80;;;;;;480199;246;2190;-54
2021/01/19 04:37:09;;;;;;;;;;;19.10;34.80;;;;;;480053;246;1281;-54
2021/01/19 04:39:10;;;;;;;;;;;19.20;34.90;;;;;;480083;246;1273;-54
2021/01/19 04:41:11;;;;;;;;;;;19.20;34.80;;;;;;480047;247;1262;-54
2021/01/19 04:43:14;;;;;;;;;;;19.20;33.50;;;;;;480311;246;1276;-54
2021/01/19 04:45:14;;;;;;;;;;;19.20;34.90;;;;;;480006;248;1559;-54
2021/01/19 04:47:15;;;;;;;;;;;19.20;34.80;;;;;;480065;247;1629;-54
2021/01/19 04:49:17;;;;;;;;;;;19.20;34.80;;;;;;480280;246;1387;-54
2021/01/19 04:51:18;;;;;;;;;;;19.20;34.80;;;;;;480061;247;1134;-54
2021/01/19 04:53:19;;;;;;;;;;;19.20;34.70;;;;;;480092;246;1224;-53
2021/01/19 04:55:20;;;;;;;;;;;19.30;34.80;;;;;;480146;246;2146;-54
2021/01/19 04:57:22;;;;;;;;;;;19.30;34.80;;;;;;480042;246;1303;-54
2021/01/19 04:59:23;;;;;;;;;;;19.20;34.70;;;;;;480123;246;1258;-53
2021/01/19 05:01:25;;;;;;;;;;;19.30;34.80;;;;;;480134;247;1153;-54
2021/01/19 05:03:26;;;;;;;;;;;19.30;34.80;;;;;;480157;246;1244;-54
2021/01/19 05:05:27;;;;;;;;;;;19.30;34.70;;;;;;480090;247;1273;-54
2021/01/19 05:07:29;;;;;;;;;;;19.30;34.70;;;;;;480080;246;1222;-54
2021/01/19 05:09:30;;;;;;;;;;;19.30;34.70;;;;;;480101;246;1444;-54
2021/01/19 05:11:31;;;;;;;;;;;19.30;34.70;;;;;;480209;246;1401;-53
2021/01/19 05:13:32;;;;;;;;;;;19.30;34.70;;;;;;480080;246;1148;-54
2021/01/19 05:15:34;;;;;;;;;;;19.30;34.60;;;;;;480202;246;2151;-54
2021/01/19 05:17:35;;;;;;;;;;;19.30;34.60;;;;;;480208;246;1336;-53
2021/01/19 05:19:36;;;;;;;;;;;19.30;34.60;;;;;;480138;247;1583;-54
2021/01/19 05:21:38;;;;;;;;;;;19.40;34.70;;;;;;480183;246;1214;-54
2021/01/19 05:23:39;;;;;;;;;;;19.30;34.60;;;;;;480112;247;1193;-54
2021/01/19 05:25:40;;;;;;;;;;;19.40;34.70;;;;;;480118;246;1351;-54
2021/01/19 05:27:42;;;;;;;;;;;19.40;34.60;;;;;;479899;246;1439;-54
2021/01/19 05:29:43;;;;;;;;;;;19.40;34.60;;;;;;479982;247;1461;-54
2021/01/19 05:31:44;;;;;;;;;;;19.40;34.60;;;;;;479966;246;1246;-53
2021/01/19 05:33:47;;;;;;;;;;;19.40;34.60;;;;;;479993;246;1247;-53
2021/01/19 05:35:48;;;;;;;;;;;19.40;34.60;;;;;;479939;247;2198;-54
2021/01/19 05:37:50;;;;;;;;;;;19.40;34.60;;;;;;479875;246;1235;-53
2021/01/19 05:39:51;;;;;;;;;;;19.40;34.60;;;;;;479984;246;1176;-54
2021/01/19 05:41:52;;;;;;;;;;;19.40;34.60;;;;;;480089;246;1233;-54
2021/01/19 05:43:53;;;;;;;;;;;19.40;34.50;;;;;;480057;246;1206;-54
2021/01/19 05:45:55;;;;;;;;;;;19.40;34.50;;;;;;479930;246;1266;-53
2021/01/19 05:47:56;;;;;;;;;;;19.40;34.50;;;;;;479985;246;1232;-53
2021/01/19 05:49:57;;;;;;;;;;;19.40;34.50;;;;;;479982;246;1392;-54
2021/01/19 05:51:59;;;;;;;;;;;19.40;33.20;;;;;;479948;246;1262;-54
2021/01/19 05:54:00;;;;;;;;;;;19.50;34.50;;;;;;479924;247;1204;-54
2021/01/19 05:56:02;;;;;;;;;;;19.50;34.50;;;;;;479925;246;2135;-54
2021/01/19 05:58:03;;;;;;;;;;;19.50;34.50;;;;;;480026;246;1327;-54
2021/01/19 06:00:04;;;;;;;;;;;19.40;34.40;;;;;;480001;246;1429;-54
2021/01/19 06:02:06;;;;;;;;;;;19.50;34.50;;;;;;479993;246;1198;-54
2021/01/19 06:04:07;;;;;;;;;;;19.50;34.50;;;;;;480015;246;1198;-54
2021/01/19 06:06:08;;;;;;;;;;;19.50;34.50;;;;;;479853;247;1181;-53
2021/01/19 06:08:09;;;;;;;;;;;19.50;34.50;;;;;;479972;247;1455;-54
2021/01/19 06:10:11;;;;;;;;;;;19.50;34.50;;;;;;479905;247;1612;-54
2021/01/19 06:12:12;;;;;;;;;;;19.50;34.50;;;;;;479969;246;1234;-54
2021/01/19 06:14:13;;;;;;;;;;;19.50;34.40;;;;;;479856;247;1209;-54
2021/01/19 06:16:15;;;;;;;;;;;19.60;34.50;;;;;;479880;246;2197;-54
2021/01/19 06:18:16;;;;;;;;;;;19.50;34.40;;;;;;479893;246;1159;-54
2021/01/19 06:20:17;;;;;;;;;;;19.50;34.40;;;;;;479982;246;1253;-54
2021/01/19 06:22:19;;;;;;;;;;;19.50;34.40;;;;;;479708;247;1152;-54
2021/01/19 06:24:20;;;;;;;;;;;19.50;34.40;;;;;;479745;246;1269;-54
2021/01/19 06:26:21;;;;;;;;;;;19.50;34.40;;;;;;479666;247;1304;-53
2021/01/19 06:28:22;;;;;;;;;;;19.50;34.40;;;;;;479761;246;1239;-54
2021/01/19 06:30:24;;;;;;;;;;;19.50;34.40;;;;;;479832;246;1388;-53
2021/01/19 06:32:25;;;;;;;;;;;19.50;34.40;;;;;;479756;247;1114;-53
2021/01/19 06:34:26;;;;;;;;;;;19.60;34.40;;;;;;479831;247;1327;-54
2021/01/19 06:36:27;;;;;;;;;;;19.60;34.40;;;;;;479766;246;2134;-54
2021/01/19 06:38:29;;;;;;;;;;;19.60;34.40;;;;;;479748;247;1240;-54
2021/01/19 06:40:30;;;;;;;;;;;19.60;34.40;;;;;;479835;247;1411;-54
2021/01/19 06:42:31;;;;;;;;;;;19.60;34.40;;;;;;479722;246;1279;-53
2021/01/19 06:44:33;;;;;;;;;;;19.60;34.40;;;;;;479686;246;1240;-54
2021/01/19 06:46:34;;;;;;;;;;;19.60;34.40;;;;;;479886;246;1182;-53
2021/01/19 06:48:36;;;;;;;;;;;19.60;34.30;;;;;;479874;246;1737;-54
2021/01/19 06:50:38;;;;;;;;;;;19.60;33.00;;;;;;479836;247;1404;-53
2021/01/19 06:52:38;;;;;;;;;;;19.60;34.40;;;;;;479694;246;1705;-54
2021/01/19 06:54:39;;;;;;;;;;;19.60;34.30;;;;;;479762;247;1383;-53
2021/01/19 06:56:41;;;;;;;;;;;19.60;34.30;;;;;;479716;246;2194;-53
2021/01/19 06:58:42;;;;;;;;;;;19.60;34.40;;;;;;479783;247;1086;-54
2021/01/19 07:00:43;;;;;;;;;;;19.60;34.40;;;;;;479740;246;1063;-54
2021/01/19 07:02:45;;;;;;;;;;;19.60;34.30;;;;;;479826;246;1040;-54
2021/01/19 07:04:46;;;;;;;;;;;19.60;34.30;;;;;;479784;244;1238;-53
2021/01/19 07:06:47;;;;;;;;;;;19.60;34.40;;;;;;479696;246;1121;-54
2021/01/19 07:08:48;;;;;;;;;;;19.60;34.30;;;;;;479776;246;1142;-54
2021/01/19 07:10:50;;;;;;;;;;;19.70;34.40;;;;;;479652;247;1265;-54
2021/01/19 07:12:51;;;;;;;;;;;19.70;34.30;;;;;;479701;246;1068;-53
2021/01/19 07:14:52;;;;;;;;;;;19.70;34.30;;;;;;479801;246;1031;-54
2021/01/19 07:16:54;;;;;;;;;;;19.70;34.30;;;;;;479816;246;2194;-54
2021/01/19 07:18:55;;;;;;;;;;;19.70;34.30;;;;;;479773;246;1192;-54
2021/01/19 07:20:56;;;;;;;;;;;19.70;34.30;;;;;;479751;246;1044;-54
2021/01/19 07:22:58;;;;;;;;;;;19.70;34.30;;;;;;479705;246;1275;-53
2021/01/19 07:24:59;;;;;;;;;;;19.70;34.30;;;;;;479701;247;1251;-53
2021/01/19 07:27:00;;;;;;;;;;;19.70;34.30;;;;;;479768;246;1071;-54
2021/01/19 07:29:02;;;;;;;;;;;19.70;34.30;;;;;;479723;246;1061;-54
2021/01/19 07:31:03;;;;;;;;;;;19.70;34.30;;;;;;479651;246;1013;-54
2021/01/19 07:33:04;;;;;;;;;;;19.70;34.30;;;;;;479561;246;1074;-54
2021/01/19 07:35:05;;;;;;;;;;;19.70;34.30;;;;;;479554;247;1181;-53
2021/01/19 07:37:07;;;;;;;;;;;19.70;34.30;;;;;;479539;247;2181;-54
2021/01/19 07:39:08;;;;;;;;;;;19.80;34.30;;;;;;479553;248;1337;-54
2021/01/19 07:41:09;;;;;;;;;;;19.80;34.40;;;;;;479606;246;1066;-54
2021/01/19 07:43:11;;;;;;;;;;;19.70;34.30;;;;;;479539;246;1073;-54
2021/01/19 07:45:12;;;;;;;;;;;19.70;34.30;;;;;;479529;244;1324;-53
2021/01/19 07:47:13;;;;;;;;;;;19.70;34.30;;;;;;479808;246;1058;-53
2021/01/19 07:49:14;;;;;;;;;;;19.80;34.30;;;;;;479675;246;1058;-54
2021/01/19 07:51:16;;;;;;;;;;;19.70;34.20;;;;;;479610;246;1115;-53
2021/01/19 07:53:17;;;;;;;;;;;19.80;34.20;;;;;;479479;246;1111;-53
2021/01/19 07:55:18;;;;;;;;;;;19.70;34.20;;;;;;479448;247;2198;-53
2021/01/19 07:57:19;;;;;;;;;;;19.80;34.20;;;;;;479485;246;1058;-54
2021/01/19 07:59:21;;;;;;;;;;;19.80;32.90;;;;;;479567;247;1065;-54
2021/01/19 08:01:22;;;;;;;;;;;19.80;34.20;;;;;;479526;246;1055;-54
2021/01/19 08:03:23;;;;;;;;;;;19.80;34.30;;;;;;479551;246;1067;-54
2021/01/19 08:05:25;;;;;;;;;;;19.80;32.90;;;;;;479492;246;1095;-54
2021/01/19 08:07:26;;;;;;;;;;;19.80;34.20;;;;;;479422;247;1497;-54
2021/01/19 08:09:27;;;;;;;;;;;19.80;34.20;;;;;;479493;246;1253;-53
2021/01/19 08:11:28;;;;;;;;;;;19.80;34.20;;;;;;479439;247;1117;-54
2021/01/19 08:13:30;;;;;;;;;;;19.80;34.20;;;;;;479354;246;1203;-53
2021/01/19 08:15:31;;;;;;;;;;;19.80;34.20;;;;;;479460;246;2135;-54
2021/01/19 08:17:32;;;;;;;;;;;19.80;34.20;;;;;;479190;245;1245;-54
2021/01/19 08:19:34;;;;;;;;;;;19.80;32.90;;;;;;479262;246;1046;-53
2021/01/19 08:21:35;;;;;;;;;;;19.80;34.20;;;;;;479217;247;1053;-54
2021/01/19 08:23:38;;;;;;;;;;;19.80;34.20;;;;;;479386;246;1248;-53
2021/01/19 08:25:39;;;;;;;;;;;19.80;34.20;;;;;;479298;246;1224;-53
2021/01/19 08:27:41;;;;;;;;;;;19.80;34.20;;;;;;479237;246;1091;-53
2021/01/19 08:29:42;;;;;;;;;;;19.90;34.20;;;;;;479296;247;1097;-54
2021/01/19 08:31:43;;;;;;;;;;;19.80;34.20;;;;;;479421;246;1144;-54
2021/01/19 08:33:50;;;;;;;;;;;19.80;34.20;;;;;;479395;246;1095;-53
2021/01/19 08:35:46;;;;;;;;;;;19.80;34.20;;;;;;478992;248;2220;-54
2021/01/19 08:37:47;;;;;;;;;;;19.90;34.30;;;;;;479496;246;1164;-54
2021/01/19 08:39:48;;;;;;;;;;;19.90;34.20;;;;;;479538;246;1318;-54
2021/01/19 08:41:50;;;;;;;;;;;19.80;34.10;;;;;;479383;247;1054;-54
2021/01/19 08:43:51;;;;;;;;;;;19.90;34.20;;;;;;479537;246;1093;-54
2021/01/19 08:45:52;;;;;;;;;;;19.80;34.20;;;;;;479377;247;1045;-53
2021/01/19 08:47:54;;;;;;;;;;;19.80;34.20;;;;;;479419;247;1022;-54
2021/01/19 08:49:55;;;;;;;;;;;19.80;34.10;;;;;;479345;246;1042;-53
2021/01/19 08:51:57;;;;;;;;;;;19.80;34.20;;;;;;479439;246;1310;-53
2021/01/19 08:53:59;;;;;;;;;;;19.90;34.20;;;;;;479429;246;1070;-53
2021/01/19 08:56:00;;;;;;;;;;;19.90;34.20;;;;;;479455;246;2159;-53
2021/01/19 08:58:01;;;;;;;;;;;19.90;34.20;;;;;;479465;246;1073;-54
2021/01/19 09:00:03;;;;;;;;;;;19.90;34.20;;;;;;479433;246;1321;-54
2021/01/19 09:02:04;;;;;;;;;;;19.90;34.20;;;;;;479429;246;1217;-53
2021/01/19 09:04:07;;;;;;;;;;;19.90;34.20;;;;;;479434;246;1047;-54
2021/01/19 09:06:06;;;;;;;;;;;19.90;34.10;;;;;;479293;248;2253;-54
2021/01/19 09:08:08;;;;;;;;;;;19.90;34.10;;;;;;479572;246;1033;-54
2021/01/19 09:10:09;;;;;;;;;;;19.90;34.10;;;;;;479400;247;1174;-54
2021/01/19 09:12:10;;;;;;;;;;;19.90;34.20;;;;;;479481;247;1068;-54
2021/01/19 09:14:12;;;;;;;;;;;19.90;34.10;;;;;;479490;246;1052;-54
2021/01/19 09:16:13;;;;;;;;;;;19.90;32.80;;;;;;479499;246;2151;-54
2021/01/19 09:18:14;;;;;;;;;;;19.90;34.10;;;;;;479347;247;1136;-54
2021/01/19 09:20:16;;;;;;;;;;;19.90;34.10;;;;;;479375;244;1409;-54
2021/01/19 09:22:17;;;;;;;;;;;19.90;34.10;;;;;;479406;246;2086;-54
2021/01/19 09:24:20;;;;;;;;;;;19.90;34.00;;;;;;479431;247;1147;-54
2021/01/19 09:26:19;;;;;;;;;;;19.90;34.10;;;;;;479380;248;1236;-54
2021/01/19 09:28:23;;;;;;;;;;;19.90;34.00;;;;;;479663;246;1518;-54
2021/01/19 09:30:24;;;;;;;;;;;19.90;34.10;;;;;;479540;246;1169;-54
2021/01/19 09:32:26;;;;;;;;;;;19.90;34.10;;;;;;479342;246;1029;-53
2021/01/19 09:34:27;;;;;;;;;;;19.90;34.10;;;;;;479302;246;1161;-52
2021/01/19 09:36:28;;;;;;;;;;;19.90;34.10;;;;;;479342;246;2147;-54
2021/01/19 09:38:29;;;;;;;;;;;19.90;34.10;;;;;;479376;246;1089;-54
2021/01/19 09:40:31;;;;;;;;;;;19.90;34.10;;;;;;479411;247;1299;-53
2021/01/19 09:42:32;;;;;;;;;;;19.90;34.10;;;;;;479614;247;1077;-54
2021/01/19 09:44:33;;;;;;;;;;;19.90;34.00;;;;;;479576;246;1046;-54
2021/01/19 09:46:35;;;;;;;;;;;19.90;32.80;;;;;;479486;246;1076;-53
2021/01/19 09:48:36;;;;;;;;;;;19.90;34.00;;;;;;479357;246;1096;-53
2021/01/19 09:50:37;;;;;;;;;;;19.90;34.10;;;;;;479382;246;1288;-54
2021/01/19 09:52:40;;;;;;;;;;;19.90;34.00;;;;;;479352;247;1168;-54
2021/01/19 09:54:40;;;;;;;;;;;19.90;34.00;;;;;;479104;246;1512;-53
2021/01/19 09:56:41;;;;;;;;;;;19.90;34.00;;;;;;479331;246;2194;-54
2021/01/19 09:58:42;;;;;;;;;;;20.00;34.10;;;;;;479338;246;1027;-54
2021/01/19 10:00:44;;;;;;;;;;;20.00;34.40;;;;;;479240;247;1105;-54
2021/01/19 10:02:45;;;;;;;;;;;20.00;34.20;;;;;;479384;246;1125;-53
2021/01/19 10:04:46;;;;;;;;;;;20.10;34.00;;;;;;479343;246;1303;-54
2021/01/19 10:06:49;;;;;;;;;;;20.10;33.90;;;;;;479430;246;1036;-53
2021/01/19 10:08:51;;;;;;;;;;;20.10;33.90;;;;;;479496;247;1063;-54
2021/01/19 10:10:52;;;;;;;;;;;20.00;34.00;;;;;;479376;246;1327;-54
2021/01/19 10:12:53;;;;;;;;;;;20.00;34.00;;;;;;479292;246;1249;-53
2021/01/19 10:14:54;;;;;;;;;;;19.90;34.10;;;;;;479310;246;1067;-54
2021/01/19 10:16:55;;;;;;;;;;;19.90;34.20;;;;;;479222;247;2198;-54
2021/01/19 10:18:57;;;;;;;;;;;19.90;34.20;;;;;;479273;246;1054;-53
2021/01/19 10:20:58;;;;;;;;;;;19.80;34.30;;;;;;479340;247;1086;-54
2021/01/19 10:22:59;;;;;;;;;;;19.80;34.30;;;;;;479395;246;1046;-54
2021/01/19 10:25:01;;;;;;;;;;;19.70;34.30;;;;;;479476;246;986;-54
2021/01/19 10:27:02;;;;;;;;;;;19.70;34.40;;;;;;479391;246;1303;-53
2021/01/19 10:29:03;;;;;;;;;;;19.70;34.40;;;;;;479292;246;1097;-54
2021/01/19 10:31:04;;;;;;;;;;;19.60;33.20;;;;;;479331;247;1079;-54
2021/01/19 10:33:06;;;;;;;;;;;19.60;34.50;;;;;;479537;246;1083;-54
2021/01/19 10:35:07;;;;;;;;;;;19.60;34.60;;;;;;479570;246;1219;-54
2021/01/19 10:37:08;;;;;;;;;;;19.60;34.60;;;;;;479451;247;2198;-54
2021/01/19 10:39:09;;;;;;;;;;;19.60;34.70;;;;;;479534;247;1093;-53
2021/01/19 10:41:11;;;;;;;;;;;19.60;34.70;;;;;;479507;246;1083;-54
2021/01/19 10:43:12;;;;;;;;;;;19.50;34.70;;;;;;479380;246;1204;-54
2021/01/19 10:45:13;;;;;;;;;;;19.50;33.40;;;;;;479486;246;1038;-54
2021/01/19 10:47:15;;;;;;;;;;;19.50;34.70;;;;;;479487;247;1014;-54
2021/01/19 10:49:16;;;;;;;;;;;19.40;34.70;;;;;;479523;247;1053;-54
2021/01/19 10:51:17;;;;;;;;;;;19.40;33.50;;;;;;479456;247;1071;-54
2021/01/19 10:53:18;;;;;;;;;;;19.40;34.80;;;;;;479375;247;1060;-54
2021/01/19 10:55:20;;;;;;;;;;;19.40;33.60;;;;;;479387;246;1341;-54
2021/01/19 10:57:21;;;;;;;;;;;19.30;33.50;;;;;;479360;247;2138;-53
2021/01/19 10:59:23;;;;;;;;;;;19.40;34.90;;;;;;479420;246;1074;-53
2021/01/19 11:01:24;;;;;;;;;;;19.40;34.90;;;;;;479369;246;1076;-53
2021/01/19 11:03:25;;;;;;;;;;;19.30;34.90;;;;;;479306;246;1114;-53
2021/01/19 11:05:26;;;;;;;;;;;19.30;33.60;;;;;;479349;246;1095;-54
2021/01/19 11:07:28;;;;;;;;;;;19.30;35.00;;;;;;479478;247;1225;-54
2021/01/19 11:09:29;;;;;;;;;;;19.30;33.70;;;;;;478076;246;1095;-53
2021/01/19 11:11:31;;;;;;;;;;;19.30;35.10;;;;;;479015;247;1237;-53
2021/01/19 11:13:32;;;;;;;;;;;19.30;35.00;;;;;;479370;247;1208;-54
2021/01/19 11:15:33;;;;;;;;;;;19.20;35.00;;;;;;479556;246;1229;-54
2021/01/19 11:17:36;;;;;;;;;;;19.20;35.00;;;;;;479616;247;2214;-54
2021/01/19 11:19:36;;;;;;;;;;;19.20;33.70;;;;;;479450;246;2089;-54
2021/01/19 11:21:37;;;;;;;;;;;19.20;35.10;;;;;;479523;246;1572;-53
2021/01/19 11:23:39;;;;;;;;;;;19.20;35.10;;;;;;479447;247;1083;-53
2021/01/19 11:25:40;;;;;;;;;;;19.10;35.00;;;;;;479605;246;1282;-54
2021/01/19 11:27:41;;;;;;;;;;;19.10;35.10;;;;;;479521;247;1180;-54
2021/01/19 11:29:43;;;;;;;;;;;19.10;33.70;;;;;;479461;247;1395;-54
2021/01/19 11:31:44;;;;;;;;;;;19.10;35.10;;;;;;479481;246;1171;-52
2021/01/19 11:33:45;;;;;;;;;;;19.10;35.10;;;;;;479414;246;1082;-53
2021/01/19 11:35:47;;;;;;;;;;;19.10;35.10;;;;;;479312;247;1130;-53
2021/01/19 11:37:48;;;;;;;;;;;19.10;35.10;;;;;;479493;246;2143;-53
2021/01/19 11:39:49;;;;;;;;;;;19.10;35.10;;;;;;479533;247;1080;-54
2021/01/19 11:41:50;;;;;;;;;;;19.10;35.10;;;;;;479443;247;1111;-54
2021/01/19 11:43:52;;;;;;;;;;;19.10;35.10;;;;;;479412;246;1212;-54
2021/01/19 11:45:53;;;;;;;;;;;19.10;35.10;;;;;;479338;247;1215;-53
2021/01/19 11:47:54;;;;;;;;;;;19.10;35.10;;;;;;479394;247;1240;-54
2021/01/19 11:49:55;;;;;;;;;;;19.10;35.20;;;;;;479562;246;1325;-54
2021/01/19 11:51:57;;;;;;;;;;;19.10;35.20;;;;;;479491;246;1184;-53
2021/01/19 11:53:58;;;;;;;;;;;19.00;35.10;;;;;;479259;244;1414;-54
2021/01/19 11:56:02;;;;;;;;;;;19.10;35.20;;;;;;479196;247;1192;-53